Terminal Aerodrome Forecast
Issued by NWS Cleveland, OH

Home | Current Version | Previous Version | Graphics & Text | Print | Product List | Glossary Off
Versions: 1 2 3 4 5 6 7 8 9 10 11 12 13 14 15 16 17 18 19 20 21 22 23 24 25 26 27 28 29 30

000
FTUS41 KCLE 240831 AAB
TAFCLE
TAF AMD
KCLE 240831Z 2409/2512 25005KT P6SM VCSH SCT011 BKN100
      TEMPO 2409/2413 BKN011
     FM241300 30010KT P6SM VCSH BKN015
     FM241700 32014G20KT P6SM BKN020
     FM242000 33014G20KT P6SM BKN035
     FM250200 35007KT P6SM BKN035=

USA.gov is the U.S. government's official web portal to all federal, state and local government web resources and services.